Norwegian Getaway — C6ZJ4 — position and weather

sailwx.info

Track history (hours):
 
Tides and Currents Weather Stations Pressure Air Temp Water Temp Dewpoint Dewpoint Depression Visibility Wind Speed Wind Dir Waves Ship Positions

Norwegian Getaway

Last reported at 2017-Aug-22 21:04 UTC. Time now 2017-Aug-22 22:29 UTC.
Position N 55°28' E 010°57'.

Length 326 m; draft 9 m.

Type: Passenger vessel. MMSI: 311050900.

Date/timePositionNaut miles runAvg speedWind from/ knotsBaromVisibWave heightAir tempDewpointWater temp
2017-Aug-22 21:04N 55°28' E 010°57'219.9
2017-Aug-22 20:58N 55°26' E 010°59'1019.7
2017-Aug-22 20:28N 55°17' E 011°04'1318.9
2017-Aug-22 19:47N 55°04' E 011°02'520.0
2017-Aug-22 19:31N 54°58' E 010°60'918.9
2017-Aug-22 19:00N 54°50' E 010°52'918.0
2017-Aug-22 18:30N 54°41' E 010°56'1019.8
2017-Aug-22 18:00N 54°37' E 011°11'1020.1
2017-Aug-22 17:30N 54°32' E 011°26'1019.6
2017-Aug-22 17:00N 54°28' E 011°42'1019.6
2017-Aug-22 16:30N 54°26' E 011°58'8219.7
2017-Aug-22 12:20N 55°04' E 014°04'720.9
2017-Aug-22 12:01N 55°10' E 014°12'1121.2
2017-Aug-22 11:31N 55°18' E 014°24'1121.3
2017-Aug-22 11:01N 55°26' E 014°36'1121.3
2017-Aug-22 10:31N 55°32' E 014°52'1121.4
2017-Aug-22 10:01N 55°36' E 015°09'1121.2
2017-Aug-22 09:30N 55°41' E 015°25'1121.1
2017-Aug-22 09:00N 55°46' E 015°42'1121.3
2017-Aug-22 08:30N 55°52' E 015°58'1121.4
2017-Aug-22 08:00N 55°58' E 016°13'1121.1
2017-Aug-22 07:30N 56°04' E 016°30'1121.3
2017-Aug-22 07:00N 56°09' E 016°46'1121.3
2017-Aug-22 06:30N 56°17' E 016°60'1121.3
2017-Aug-22 06:00N 56°25' E 017°11'1121.2
2017-Aug-22 05:30N 56°34' E 017°22'16821.1
2017-Aug-21 21:34N 59°07' E 019°30'320.5
2017-Aug-21 21:24N 59°10' E 019°33'1125.8
2017-Aug-21 21:00N 59°19' E 019°44'1020.4
2017-Aug-21 20:30N 59°28' E 019°54'918.0
2017-Aug-21 20:01N 59°36' E 019°57'1121.8
2017-Aug-21 19:31N 59°45' E 019°43'918.7
2017-Aug-21 19:01N 59°47' E 019°25'816.0
2017-Aug-21 18:30N 59°44' E 019°10'816.0
2017-Aug-21 18:00N 59°40' E 018°56'510.2
2017-Aug-21 17:30N 59°37' E 018°48'611.7
2017-Aug-21 17:00N 59°34' E 018°38'5 9.2
2017-Aug-21 16:30N 59°31' E 018°31'510.5
2017-Aug-21 16:00N 59°27' E 018°25'4 7.9
2017-Aug-21 15:30N 59°23' E 018°27'3 5.0
2017-Aug-21 14:59N 59°22' E 018°22'510.4
2017-Aug-21 14:29N 59°20' E 018°12'2 4.5
2017-Aug-21 13:55N 59°21' E 018°08'0 0.0
2017-Aug-21 13:25N 59°21' E 018°08'0 0.0
2017-Aug-21 12:55N 59°21' E 018°08'0 0.0
2017-Aug-21 12:26N 59°21' E 018°08'0 0.0
2017-Aug-21 11:59N 59°21' E 018°08'0 0.0
2017-Aug-21 11:28N 59°21' E 018°08'0 0.0
2017-Aug-21 10:58N 59°21' E 018°08'0 0.0
2017-Aug-21 10:30N 59°21' E 018°08'0 0.0
2017-Aug-21 10:00N 59°21' E 018°08'0 0.0
2017-Aug-21 09:30N 59°21' E 018°08'0 0.0
2017-Aug-21 08:56N 59°21' E 018°08'0 0.0
2017-Aug-21 08:26N 59°21' E 018°08'0 0.0
2017-Aug-21 07:56N 59°21' E 018°08'0 0.0
2017-Aug-21 07:27N 59°21' E 018°08'1 1.6
2017-Aug-21 07:00N 59°20' E 018°09'4 8.9
2017-Aug-21 06:30N 59°22' E 018°17'5 9.5
2017-Aug-21 06:00N 59°21' E 018°26'5 9.5
2017-Aug-21 05:30N 59°26' E 018°23'1010.3
2017-Aug-21 04:33N 59°33' E 018°36'1 9.5
2017-Aug-21 04:25N 59°34' E 018°38'511.6
2017-Aug-21 04:00N 59°36' E 018°47'511.1
2017-Aug-21 03:30N 59°40' E 018°55'714.2
2017-Aug-21 03:00N 59°43' E 019°07'917.9
2017-Aug-21 02:30N 59°47' E 019°24'613.0
2017-Aug-21 02:00N 59°48' E 019°36'612.4
2017-Aug-21 01:30N 59°46' E 019°47'713.3
2017-Aug-21 01:00N 59°41' E 019°57'713.5
2017-Aug-21 00:30N 59°37' E 020°08'713.6
2017-Aug-21 00:00N 59°37' E 020°21'713.7
2017-Aug-20 23:30N 59°37' E 020°34'714.3
2017-Aug-20 23:00N 59°34' E 020°48'714.2
2017-Aug-20 22:30N 59°31' E 021°01'714.3
2017-Aug-20 22:00N 59°29' E 021°14'714.8
2017-Aug-20 21:31N 59°27' E 021°28'714.9
2017-Aug-20 21:00N 59°27' E 021°43'714.7
2017-Aug-20 20:30N 59°28' E 021°57'714.8
2017-Aug-20 20:00N 59°29' E 022°12'714.8
2017-Aug-20 19:30N 59°30' E 022°26'714.6
2017-Aug-20 19:00N 59°32' E 022°40'714.6
2017-Aug-20 18:30N 59°34' E 022°53'714.7
2017-Aug-20 18:00N 59°36' E 023°07'714.5
2017-Aug-20 17:30N 59°39' E 023°21'714.8
2017-Aug-20 17:00N 59°41' E 023°35'714.9
2017-Aug-20 16:30N 59°43' E 023°49'714.5
2017-Aug-20 16:00N 59°45' E 024°03'714.9
2017-Aug-20 15:30N 59°47' E 024°17'815.1
2017-Aug-20 15:00N 59°50' E 024°31'815.3
2017-Aug-20 14:30N 59°55' E 024°43'714.5
2017-Aug-20 14:00N 59°59' E 024°54'612.8
2017-Aug-20 13:31N 60°06' E 024°54'3 6.6
2017-Aug-20 13:00N 60°09' E 024°55'0 0.1
2017-Aug-20 12:30N 60°09' E 024°55'0 0.0
2017-Aug-20 12:00N 60°09' E 024°55'0 0.0
2017-Aug-20 11:30N 60°09' E 024°55'0 0.0
2017-Aug-20 11:00N 60°09' E 024°55'0 0.0
2017-Aug-20 10:30N 60°09' E 024°55'0 0.0
2017-Aug-20 10:00N 60°09' E 024°55'0 0.0
2017-Aug-20 09:30N 60°09' E 024°55'0 0.0
2017-Aug-20 09:00N 60°09' E 024°55'0 0.0
2017-Aug-20 08:30N 60°09' E 024°55'0 0.0
2017-Aug-20 08:00N 60°09' E 024°55'0 0.0
2017-Aug-20 07:30N 60°09' E 024°55'0 0.0
2017-Aug-20 07:00N 60°09' E 024°55'0 0.0
2017-Aug-20 06:30N 60°09' E 024°55'0 0.0
2017-Aug-20 06:00N 60°09' E 024°55'0 0.0
2017-Aug-20 05:30N 60°09' E 024°55'0 0.0
2017-Aug-20 05:00N 60°09' E 024°55'0 0.0
2017-Aug-20 04:30N 60°09' E 024°55'0 0.0
2017-Aug-20 04:00N 60°09' E 024°55'1 1.9
2017-Aug-20 03:31N 60°08' E 024°54'510.8
2017-Aug-20 03:01N 60°03' E 024°54'713.9
2017-Aug-20 02:30N 59°56' E 024°57'714.4
2017-Aug-20 02:01N 59°54' E 025°11'815.3
2017-Aug-20 01:30N 59°55' E 025°26'815.5
2017-Aug-20 01:00N 59°55' E 025°42'815.2
2017-Aug-20 00:30N 59°57' E 025°56'815.7
2017-Aug-20 00:00N 59°59' E 026°11'815.5
2017-Aug-19 23:30N 60°01' E 026°26'816.4
2017-Aug-19 23:00N 60°01' E 026°43'918.6
2017-Aug-19 22:30N 59°60' E 027°01'918.5
2017-Aug-19 22:00N 60°04' E 027°18'917.7
2017-Aug-19 21:30N 60°08' E 027°33'918.3
2017-Aug-19 21:00N 60°12' E 027°50'918.1
2017-Aug-19 20:30N 60°09' E 028°08'918.2
2017-Aug-19 20:00N 60°05' E 028°24'1019.8
2017-Aug-19 19:29N 60°03' E 028°44'715.5
2017-Aug-19 19:00N 60°02' E 028°59'918.5
2017-Aug-19 18:30N 60°02' E 029°18'1412.8
2017-Aug-19 17:22N 59°59' E 029°46'711.6
2017-Aug-19 16:46N 59°56' E 029°59'3 9.7
2017-Aug-19 16:30N 59°56' E 030°04'4 7.8
2017-Aug-19 16:00N 59°57' E 030°11'0 0.3
2017-Aug-19 15:30N 59°57' E 030°11'0 0.0
2017-Aug-19 15:00N 59°57' E 030°11'0 0.0
2017-Aug-19 13:57N 59°57' E 030°11'0 0.0
2017-Aug-19 13:29N 59°57' E 030°11'0 0.0
2017-Aug-19 12:58N 59°57' E 030°11'0 0.0
2017-Aug-19 12:29N 59°57' E 030°11'0 0.0
2017-Aug-19 12:00N 59°57' E 030°11'0 0.0
2017-Aug-19 11:29N 59°57' E 030°11'0 0.0
2017-Aug-19 10:59N 59°57' E 030°11'0 0.0
2017-Aug-19 10:24N 59°57' E 030°11'0 0.0
2017-Aug-19 10:00N 59°57' E 030°11'0 0.0
2017-Aug-19 09:30N 59°57' E 030°11'0 0.0
2017-Aug-19 09:00N 59°57' E 030°11'0 0.0
2017-Aug-19 08:30N 59°57' E 030°11'0 0.0
2017-Aug-19 08:00N 59°57' E 030°11'0 0.0
2017-Aug-19 07:26N 59°57' E 030°11'0 0.0
2017-Aug-19 06:57N 59°57' E 030°11'0 0.0
2017-Aug-19 06:30N 59°57' E 030°11'0 0.0
2017-Aug-19 05:59N 59°57' E 030°11'0 0.0
2017-Aug-19 05:29N 59°57' E 030°11'0 0.0
2017-Aug-19 04:59N 59°57' E 030°11'0 0.0
2017-Aug-19 04:30N 59°57' E 030°11'0 0.0
2017-Aug-19 03:59N 59°57' E 030°11'0 0.0
2017-Aug-19 03:28N 59°57' E 030°11'0 0.0
2017-Aug-19 03:00N 59°57' E 030°11'0 0.0
2017-Aug-19 02:29N 59°57' E 030°11'0 0.0
2017-Aug-19 01:59N 59°57' E 030°11'0 0.0
2017-Aug-19 01:28N 59°57' E 030°11'0 0.0
2017-Aug-19 00:59N 59°57' E 030°11'0 0.0
2017-Aug-19 00:27N 59°57' E 030°11'0 0.0
2017-Aug-19 00:00N 59°57' E 030°11'0 0.0
2017-Aug-18 23:28N 59°57' E 030°11'0 0.0
2017-Aug-18 23:00N 59°57' E 030°11'0 0.0
2017-Aug-18 22:29N 59°57' E 030°11'0 0.0
2017-Aug-18 21:59N 59°57' E 030°11'0 0.0
2017-Aug-18 21:30N 59°57' E 030°11'0 0.0
2017-Aug-18 20:59N 59°57' E 030°11'0 0.0
2017-Aug-18 20:28N 59°57' E 030°11'0 0.0
2017-Aug-18 19:59N 59°57' E 030°11'0 0.0
2017-Aug-18 19:30N 59°57' E 030°11'0 0.0
2017-Aug-18 18:59N 59°57' E 030°11'0 0.0
2017-Aug-18 18:26N 59°57' E 030°11'0 0.0
2017-Aug-18 17:59N 59°57' E 030°11'0 0.0
2017-Aug-18 17:30N 59°57' E 030°11'0 0.0
2017-Aug-18 16:59N 59°57' E 030°11'0 0.0
2017-Aug-18 16:29N 59°57' E 030°11'0 0.0
2017-Aug-18 16:00N 59°57' E 030°11'0 0.0
2017-Aug-18 15:30N 59°57' E 030°11'0 0.0
2017-Aug-18 15:00N 59°57' E 030°11'0 0.0
2017-Aug-18 14:29N 59°57' E 030°11'0 0.0
2017-Aug-18 13:29N 59°57' E 030°11'0 0.0
2017-Aug-18 12:58N 59°57' E 030°11'0 0.0
2017-Aug-18 12:24N 59°57' E 030°11'0 0.0
2017-Aug-18 12:00N 59°57' E 030°11'0 0.0
2017-Aug-18 11:28N 59°57' E 030°11'0 0.0
2017-Aug-18 10:58N 59°57' E 030°11'0 0.0
2017-Aug-18 10:28N 59°57' E 030°11'0 0.0
2017-Aug-18 09:58N 59°57' E 030°11'0 0.0
2017-Aug-18 09:28N 59°57' E 030°11'0 0.0
2017-Aug-18 09:00N 59°57' E 030°11'0 0.0
2017-Aug-18 08:28N 59°57' E 030°11'0 0.0
2017-Aug-18 08:00N 59°57' E 030°11'0 0.0
2017-Aug-18 07:29N 59°57' E 030°11'0 0.0
2017-Aug-18 06:59N 59°57' E 030°11'0 0.0
2017-Aug-18 06:29N 59°57' E 030°11'0 0.0
2017-Aug-18 06:00N 59°57' E 030°11'0 0.0
2017-Aug-18 05:25N 59°57' E 030°11'0 0.0
2017-Aug-18 05:00N 59°57' E 030°11'0 0.0
2017-Aug-18 04:26N 59°57' E 030°11'0 0.0
2017-Aug-18 03:58N 59°57' E 030°11'0 0.0
2017-Aug-18 03:30N 59°57' E 030°11'1 2.1
2017-Aug-18 03:00N 59°57' E 030°09'5 9.7
2017-Aug-18 02:30N 59°55' E 029°60'611.8
2017-Aug-18 02:00N 59°58' E 029°49'4 9.0
2017-Aug-18 01:30N 59°60' E 029°41'612.0
2017-Aug-18 01:00N 60°01' E 029°30'5 9.3
2017-Aug-18 00:30N 60°02' E 029°20'713.2
2017-Aug-18 00:00N 60°02' E 029°07'713.6
2017-Aug-17 23:30N 60°02' E 028°54'714.4
2017-Aug-17 23:00N 60°02' E 028°39'714.7
2017-Aug-17 22:31N 60°03' E 028°25'714.8
2017-Aug-17 22:00N 60°08' E 028°13'815.2
2017-Aug-17 21:31N 60°10' E 027°58'816.0
2017-Aug-17 21:01N 60°10' E 027°42'815.9
2017-Aug-17 20:30N 60°06' E 027°28'613.1
2017-Aug-17 20:00N 60°02' E 027°17'714.6
2017-Aug-17 19:30N 59°58' E 027°05'815.6
2017-Aug-17 19:01N 59°59' E 026°49'816.0
2017-Aug-17 18:30N 59°59' E 026°33'714.7
2017-Aug-17 18:01N 59°57' E 026°19'715.0
2017-Aug-17 17:31N 59°55' E 026°05'816.0
2017-Aug-17 17:01N 59°52' E 025°50'714.1
2017-Aug-17 16:30N 59°50' E 025°36'815.6
2017-Aug-17 16:01N 59°48' E 025°22'714.7
2017-Aug-17 15:31N 59°46' E 025°08'815.3
2017-Aug-17 15:00N 59°44' E 024°53'816.0
2017-Aug-17 14:31N 59°38' E 024°42'815.1
2017-Aug-17 14:00N 59°31' E 024°45'4 7.3
2017-Aug-17 13:30N 59°27' E 024°46'0 0.0
2017-Aug-17 13:00N 59°27' E 024°46'0 0.0
2017-Aug-17 12:30N 59°27' E 024°46'0 0.0
2017-Aug-17 11:59N 59°27' E 024°46'0 0.0
2017-Aug-17 11:28N 59°27' E 024°46'0 0.0
2017-Aug-17 10:58N 59°27' E 024°46'0 0.0
2017-Aug-17 10:29N 59°27' E 024°46'0 0.0
2017-Aug-17 10:00N 59°27' E 024°46'0 0.0
2017-Aug-17 09:29N 59°27' E 024°46'0 0.0
2017-Aug-17 08:59N 59°27' E 024°46'0 0.0
2017-Aug-17 08:28N 59°27' E 024°46'0 0.0
2017-Aug-17 08:00N 59°27' E 024°46'0 0.0
2017-Aug-17 07:30N 59°27' E 024°46'0 0.0
2017-Aug-17 07:00N 59°27' E 024°46'0 0.0
2017-Aug-17 06:30N 59°27' E 024°46'0 0.0
2017-Aug-17 06:01N 59°27' E 024°46'0 0.0
2017-Aug-17 05:28N 59°27' E 024°46'0 0.2
2017-Aug-17 05:00N 59°27' E 024°46'2 4.9
2017-Aug-17 04:30N 59°29' E 024°45'815.2
2017-Aug-17 04:01N 59°36' E 024°39'815.7
2017-Aug-17 03:30N 59°38' E 024°24'917.3
2017-Aug-17 03:00N 59°36' E 024°08'917.7
2017-Aug-17 02:30N 59°33' E 023°51'917.7
2017-Aug-17 02:01N 59°30' E 023°35'917.6
2017-Aug-17 01:30N 59°27' E 023°18'917.5
2017-Aug-17 01:00N 59°25' E 023°02'918.0
2017-Aug-17 00:31N 59°22' E 022°45'918.0
2017-Aug-17 00:00N 59°19' E 022°28'917.7
2017-Aug-16 23:31N 59°15' E 022°13'918.6
2017-Aug-16 23:00N 59°09' E 021°58'917.3
2017-Aug-16 22:30N 59°04' E 021°44'917.5
2017-Aug-16 22:00N 58°57' E 021°35'1018.0
2017-Aug-16 21:29N 58°49' E 021°24'918.5
2017-Aug-16 21:00N 58°42' E 021°15'20717.5
2017-Aug-16 09:11N 56°08' E 016°59'317.7
2017-Aug-16 09:00N 56°06' E 016°54'917.8
2017-Aug-16 08:31N 56°01' E 016°41'918.1
2017-Aug-16 08:01N 55°56' E 016°28'917.0
2017-Aug-16 07:30N 55°51' E 016°15'815.7
2017-Aug-16 07:00N 55°48' E 016°03'815.7
2017-Aug-16 06:31N 55°44' E 015°50'815.9
2017-Aug-16 06:00N 55°40' E 015°38'816.0
2017-Aug-16 05:30N 55°36' E 015°25'816.2
2017-Aug-16 05:00N 55°33' E 015°13'917.9
2017-Aug-16 04:30N 55°29' E 014°58'918.1
2017-Aug-16 04:00N 55°25' E 014°44'917.7
2017-Aug-16 03:30N 55°19' E 014°32'917.9
2017-Aug-16 03:00N 55°12' E 014°23'917.8
2017-Aug-16 02:30N 55°05' E 014°13'816.9
2017-Aug-16 02:00N 54°60' E 014°02'917.3
2017-Aug-16 01:30N 54°57' E 013°48'917.7
2017-Aug-16 01:00N 54°54' E 013°33'918.1
2017-Aug-16 00:30N 54°52' E 013°18'918.2
2017-Aug-16 00:01N 54°49' E 013°03'917.9
2017-Aug-15 23:31N 54°47' E 012°48'1417.3
2017-Aug-15 22:44N 54°40' E 012°28'417.5
2017-Aug-15 22:31N 54°38' E 012°22'916.9
2017-Aug-15 22:00N 54°31' E 012°14'21 1.6
2017-Aug-15 08:36N 54°10' E 012°06'0 0.0
2017-Aug-15 08:06N 54°10' E 012°06'0 0.0
2017-Aug-15 07:24N 54°10' E 012°06'0 0.0
2017-Aug-15 07:00N 54°10' E 012°06'0 0.0
2017-Aug-15 06:30N 54°10' E 012°06'1 1.6
2017-Aug-15 05:59N 54°10' E 012°06'2 3.3
2017-Aug-15 05:30N 54°11' E 012°05'4 8.8
2017-Aug-15 05:00N 54°15' E 012°02'18 8.4
2017-Aug-15 02:49N 54°26' E 011°36'618.0
2017-Aug-15 02:30N 54°29' E 011°28'917.6
2017-Aug-15 02:00N 54°33' E 011°15'917.3
2017-Aug-15 01:31N 54°38' E 011°02'816.6
2017-Aug-15 01:00N 54°43' E 010°51'816.6
2017-Aug-15 00:31N 54°51' E 010°52'816.3
2017-Aug-15 00:00N 54°58' E 010°59'816.6
2017-Aug-14 23:30N 55°06' E 011°02'816.4
2017-Aug-14 23:00N 55°15' E 011°05'816.9
2017-Aug-14 22:30N 55°23' E 011°01'917.8
2017-Aug-14 22:00N 55°30' E 010°52'917.6
2017-Aug-14 21:30N 55°38' E 010°46'917.9
2017-Aug-14 20:59N 55°47' E 010°48'917.2
2017-Aug-14 20:29N 55°55' E 010°56'918.0
2017-Aug-14 20:01N 56°02' E 011°05'916.5
2017-Aug-14 19:29N 56°07' E 011°17'919.3
2017-Aug-14 19:00N 56°06' E 011°34'1719.0
2017-Aug-14 18:05N 56°11' E 012°04'119.1
2017-Aug-14 18:00N 56°12' E 012°06'918.1
2017-Aug-14 17:30N 56°11' E 012°23'918.8
2017-Aug-14 17:00N 56°05' E 012°36'815.9
2017-Aug-14 16:30N 55°58' E 012°42'815.9
2017-Aug-14 16:01N 55°50' E 012°45'714.0
2017-Aug-14 15:30N 55°44' E 012°40'2 3.4
2017-Aug-14 14:58N 55°43' E 012°37'0 0.0
2017-Aug-14 14:28N 55°43' E 012°37'0 0.0
2017-Aug-14 13:58N 55°43' E 012°37'0 0.0
2017-Aug-14 13:28N 55°43' E 012°37'0 0.0
2017-Aug-14 12:58N 55°43' E 012°37'0 0.0
2017-Aug-14 12:28N 55°43' E 012°37'0 0.0
2017-Aug-14 11:58N 55°43' E 012°37'0 0.0
2017-Aug-14 11:28N 55°43' E 012°37'0 0.0
2017-Aug-14 10:58N 55°43' E 012°37'0 0.0
2017-Aug-14 10:28N 55°43' E 012°37'0 0.0
2017-Aug-14 09:58N 55°43' E 012°37'0 0.0
2017-Aug-14 09:28N 55°43' E 012°37'0 0.0
2017-Aug-14 08:58N 55°43' E 012°37'0 0.0
2017-Aug-14 08:28N 55°43' E 012°37'0 0.0
2017-Aug-14 07:58N 55°43' E 012°37'0 0.0
2017-Aug-14 07:28N 55°43' E 012°37'0 0.0
2017-Aug-14 06:58N 55°43' E 012°37'0 0.0
2017-Aug-14 06:28N 55°43' E 012°37'0 0.0
2017-Aug-14 05:58N 55°43' E 012°37'0 0.0
2017-Aug-14 05:30N 55°43' E 012°37'0 0.0
2017-Aug-14 04:59N 55°43' E 012°37'0 0.1
2017-Aug-14 04:31N 55°43' E 012°37'2 4.1
2017-Aug-14 04:00N 55°44' E 012°40'815.4
2017-Aug-14 03:30N 55°52' E 012°40'1019.5
2017-Aug-14 03:00N 56°02' E 012°40'1020.2
2017-Aug-14 02:30N 56°08' E 012°26'2719.5
2017-Aug-14 01:06N 56°07' E 011°37'320.3
2017-Aug-14 00:58N 56°07' E 011°32'1020.5
2017-Aug-14 00:29N 56°07' E 011°14'918.5
2017-Aug-14 00:00N 56°00' E 011°05'1020.3
2017-Aug-13 23:29N 55°52' E 010°53'1019.3
2017-Aug-13 22:59N 55°43' E 010°48'1019.1
2017-Aug-13 22:29N 55°33' E 010°51'1019.6
2017-Aug-13 22:00N 55°25' E 011°00'1114.7
2017-Aug-13 21:17N 55°15' E 011°05'517.4
2017-Aug-13 21:00N 55°11' E 011°04'1019.1
2017-Aug-13 20:30N 55°01' E 011°02'918.1
2017-Aug-13 20:00N 54°54' E 010°53'917.7
2017-Aug-13 19:31N 54°45' E 010°53'917.2
2017-Aug-13 19:01N 54°39' E 011°03'1019.9
2017-Aug-13 18:31N 54°34' E 011°18'1019.9
2017-Aug-13 18:00N 54°30' E 011°34'1019.8
2017-Aug-13 17:30N 54°26' E 011°50'8519.2
2017-Aug-13 13:04N 55°04' E 014°02'120.4
2017-Aug-13 13:01N 55°05' E 014°03'1020.2
2017-Aug-13 12:31N 55°13' E 014°15'1019.9
2017-Aug-13 12:01N 55°20' E 014°27'1020.0
2017-Aug-13 11:31N 55°27' E 014°39'1020.4
2017-Aug-13 11:01N 55°32' E 014°55'1020.5
2017-Aug-13 10:30N 55°37' E 015°12'  
Track history (hours):
 
Tides and Currents Weather Stations Pressure Air Temp Water Temp Dewpoint Dewpoint Depression Visibility Wind Speed Wind Dir Waves Ship Positions

Norwegian Getaway

Last reported at 2017-Aug-22 21:04 UTC. Time now 2017-Aug-22 22:29 UTC.
Position N 55°28' E 010°57'.

Length 326 m; draft 9 m.

Type: Passenger vessel. MMSI: 311050900.

Date/timePositionNaut miles runAvg speedWind from/ knotsBaromVisibWave heightAir tempDewpointWater temp
2017-Aug-22 21:04N 55°28' E 010°57'219.9
2017-Aug-22 20:58N 55°26' E 010°59'1019.7
2017-Aug-22 20:28N 55°17' E 011°04'1318.9
2017-Aug-22 19:47N 55°04' E 011°02'520.0
2017-Aug-22 19:31N 54°58' E 010°60'918.9
2017-Aug-22 19:00N 54°50' E 010°52'918.0
2017-Aug-22 18:30N 54°41' E 010°56'1019.8
2017-Aug-22 18:00N 54°37' E 011°11'1020.1
2017-Aug-22 17:30N 54°32' E 011°26'1019.6
2017-Aug-22 17:00N 54°28' E 011°42'1019.6
2017-Aug-22 16:30N 54°26' E 011°58'8219.7
2017-Aug-22 12:20N 55°04' E 014°04'720.9
2017-Aug-22 12:01N 55°10' E 014°12'1121.2
2017-Aug-22 11:31N 55°18' E 014°24'1121.3
2017-Aug-22 11:01N 55°26' E 014°36'1121.3
2017-Aug-22 10:31N 55°32' E 014°52'1121.4
2017-Aug-22 10:01N 55°36' E 015°09'1121.2
2017-Aug-22 09:30N 55°41' E 015°25'1121.1
2017-Aug-22 09:00N 55°46' E 015°42'1121.3
2017-Aug-22 08:30N 55°52' E 015°58'1121.4
2017-Aug-22 08:00N 55°58' E 016°13'1121.1
2017-Aug-22 07:30N 56°04' E 016°30'1121.3
2017-Aug-22 07:00N 56°09' E 016°46'1121.3
2017-Aug-22 06:30N 56°17' E 016°60'1121.3
2017-Aug-22 06:00N 56°25' E 017°11'1121.2
2017-Aug-22 05:30N 56°34' E 017°22'16821.1
2017-Aug-21 21:34N 59°07' E 019°30'320.5
2017-Aug-21 21:24N 59°10' E 019°33'1125.8
2017-Aug-21 21:00N 59°19' E 019°44'1020.4
2017-Aug-21 20:30N 59°28' E 019°54'918.0
2017-Aug-21 20:01N 59°36' E 019°57'1121.8
2017-Aug-21 19:31N 59°45' E 019°43'918.7
2017-Aug-21 19:01N 59°47' E 019°25'816.0
2017-Aug-21 18:30N 59°44' E 019°10'816.0
2017-Aug-21 18:00N 59°40' E 018°56'510.2
2017-Aug-21 17:30N 59°37' E 018°48'611.7
2017-Aug-21 17:00N 59°34' E 018°38'5 9.2
2017-Aug-21 16:30N 59°31' E 018°31'510.5
2017-Aug-21 16:00N 59°27' E 018°25'4 7.9
2017-Aug-21 15:30N 59°23' E 018°27'3 5.0
2017-Aug-21 14:59N 59°22' E 018°22'510.4
2017-Aug-21 14:29N 59°20' E 018°12'2 4.5
2017-Aug-21 13:55N 59°21' E 018°08'0 0.0
2017-Aug-21 13:25N 59°21' E 018°08'0 0.0
2017-Aug-21 12:55N 59°21' E 018°08'0 0.0
2017-Aug-21 12:26N 59°21' E 018°08'0 0.0
2017-Aug-21 11:59N 59°21' E 018°08'0 0.0
2017-Aug-21 11:28N 59°21' E 018°08'0 0.0
2017-Aug-21 10:58N 59°21' E 018°08'0 0.0
2017-Aug-21 10:30N 59°21' E 018°08'0 0.0
2017-Aug-21 10:00N 59°21' E 018°08'0 0.0
2017-Aug-21 09:30N 59°21' E 018°08'0 0.0
2017-Aug-21 08:56N 59°21' E 018°08'0 0.0
2017-Aug-21 08:26N 59°21' E 018°08'0 0.0
2017-Aug-21 07:56N 59°21' E 018°08'0 0.0
2017-Aug-21 07:27N 59°21' E 018°08'1 1.6
2017-Aug-21 07:00N 59°20' E 018°09'4 8.9
2017-Aug-21 06:30N 59°22' E 018°17'5 9.5
2017-Aug-21 06:00N 59°21' E 018°26'5 9.5
2017-Aug-21 05:30N 59°26' E 018°23'1010.3
2017-Aug-21 04:33N 59°33' E 018°36'1 9.5
2017-Aug-21 04:25N 59°34' E 018°38'511.6
2017-Aug-21 04:00N 59°36' E 018°47'511.1
2017-Aug-21 03:30N 59°40' E 018°55'714.2
2017-Aug-21 03:00N 59°43' E 019°07'917.9
2017-Aug-21 02:30N 59°47' E 019°24'613.0
2017-Aug-21 02:00N 59°48' E 019°36'612.4
2017-Aug-21 01:30N 59°46' E 019°47'713.3
2017-Aug-21 01:00N 59°41' E 019°57'713.5
2017-Aug-21 00:30N 59°37' E 020°08'713.6
2017-Aug-21 00:00N 59°37' E 020°21'713.7
2017-Aug-20 23:30N 59°37' E 020°34'714.3
2017-Aug-20 23:00N 59°34' E 020°48'714.2
2017-Aug-20 22:30N 59°31' E 021°01'714.3
2017-Aug-20 22:00N 59°29' E 021°14'714.8
2017-Aug-20 21:31N 59°27' E 021°28'714.9
2017-Aug-20 21:00N 59°27' E 021°43'714.7
2017-Aug-20 20:30N 59°28' E 021°57'714.8
2017-Aug-20 20:00N 59°29' E 022°12'714.8
2017-Aug-20 19:30N 59°30' E 022°26'714.6
2017-Aug-20 19:00N 59°32' E 022°40'714.6
2017-Aug-20 18:30N 59°34' E 022°53'714.7
2017-Aug-20 18:00N 59°36' E 023°07'714.5
2017-Aug-20 17:30N 59°39' E 023°21'714.8
2017-Aug-20 17:00N 59°41' E 023°35'714.9
2017-Aug-20 16:30N 59°43' E 023°49'714.5
2017-Aug-20 16:00N 59°45' E 024°03'714.9
2017-Aug-20 15:30N 59°47' E 024°17'815.1
2017-Aug-20 15:00N 59°50' E 024°31'815.3
2017-Aug-20 14:30N 59°55' E 024°43'714.5
2017-Aug-20 14:00N 59°59' E 024°54'612.8
2017-Aug-20 13:31N 60°06' E 024°54'3 6.6
2017-Aug-20 13:00N 60°09' E 024°55'0 0.1
2017-Aug-20 12:30N 60°09' E 024°55'0 0.0
2017-Aug-20 12:00N 60°09' E 024°55'0 0.0
2017-Aug-20 11:30N 60°09' E 024°55'0 0.0
2017-Aug-20 11:00N 60°09' E 024°55'0 0.0
2017-Aug-20 10:30N 60°09' E 024°55'0 0.0
2017-Aug-20 10:00N 60°09' E 024°55'0 0.0
2017-Aug-20 09:30N 60°09' E 024°55'0 0.0
2017-Aug-20 09:00N 60°09' E 024°55'0 0.0
2017-Aug-20 08:30N 60°09' E 024°55'0 0.0
2017-Aug-20 08:00N 60°09' E 024°55'0 0.0
2017-Aug-20 07:30N 60°09' E 024°55'0 0.0
2017-Aug-20 07:00N 60°09' E 024°55'0 0.0
2017-Aug-20 06:30N 60°09' E 024°55'0 0.0
2017-Aug-20 06:00N 60°09' E 024°55'0 0.0
2017-Aug-20 05:30N 60°09' E 024°55'0 0.0
2017-Aug-20 05:00N 60°09' E 024°55'0 0.0
2017-Aug-20 04:30N 60°09' E 024°55'0 0.0
2017-Aug-20 04:00N 60°09' E 024°55'1 1.9
2017-Aug-20 03:31N 60°08' E 024°54'510.8
2017-Aug-20 03:01N 60°03' E 024°54'713.9
2017-Aug-20 02:30N 59°56' E 024°57'714.4
2017-Aug-20 02:01N 59°54' E 025°11'815.3
2017-Aug-20 01:30N 59°55' E 025°26'815.5
2017-Aug-20 01:00N 59°55' E 025°42'815.2
2017-Aug-20 00:30N 59°57' E 025°56'815.7
2017-Aug-20 00:00N 59°59' E 026°11'815.5
2017-Aug-19 23:30N 60°01' E 026°26'816.4
2017-Aug-19 23:00N 60°01' E 026°43'918.6
2017-Aug-19 22:30N 59°60' E 027°01'918.5
2017-Aug-19 22:00N 60°04' E 027°18'917.7
2017-Aug-19 21:30N 60°08' E 027°33'918.3
2017-Aug-19 21:00N 60°12' E 027°50'918.1
2017-Aug-19 20:30N 60°09' E 028°08'918.2
2017-Aug-19 20:00N 60°05' E 028°24'1019.8
2017-Aug-19 19:29N 60°03' E 028°44'715.5
2017-Aug-19 19:00N 60°02' E 028°59'918.5
2017-Aug-19 18:30N 60°02' E 029°18'1412.8
2017-Aug-19 17:22N 59°59' E 029°46'711.6
2017-Aug-19 16:46N 59°56' E 029°59'3 9.7
2017-Aug-19 16:30N 59°56' E 030°04'4 7.8
2017-Aug-19 16:00N 59°57' E 030°11'0 0.3
2017-Aug-19 15:30N 59°57' E 030°11'0 0.0
2017-Aug-19 15:00N 59°57' E 030°11'0 0.0
2017-Aug-19 13:57N 59°57' E 030°11'0 0.0
2017-Aug-19 13:29N 59°57' E 030°11'0 0.0
2017-Aug-19 12:58N 59°57' E 030°11'0 0.0
2017-Aug-19 12:29N 59°57' E 030°11'0 0.0
2017-Aug-19 12:00N 59°57' E 030°11'0 0.0
2017-Aug-19 11:29N 59°57' E 030°11'0 0.0
2017-Aug-19 10:59N 59°57' E 030°11'0 0.0
2017-Aug-19 10:24N 59°57' E 030°11'0 0.0
2017-Aug-19 10:00N 59°57' E 030°11'0 0.0
2017-Aug-19 09:30N 59°57' E 030°11'0 0.0
2017-Aug-19 09:00N 59°57' E 030°11'0 0.0
2017-Aug-19 08:30N 59°57' E 030°11'0 0.0
2017-Aug-19 08:00N 59°57' E 030°11'0 0.0
2017-Aug-19 07:26N 59°57' E 030°11'0 0.0
2017-Aug-19 06:57N 59°57' E 030°11'0 0.0
2017-Aug-19 06:30N 59°57' E 030°11'0 0.0
2017-Aug-19 05:59N 59°57' E 030°11'0 0.0
2017-Aug-19 05:29N 59°57' E 030°11'0 0.0
2017-Aug-19 04:59N 59°57' E 030°11'0 0.0
2017-Aug-19 04:30N 59°57' E 030°11'0 0.0
2017-Aug-19 03:59N 59°57' E 030°11'0 0.0
2017-Aug-19 03:28N 59°57' E 030°11'0 0.0
2017-Aug-19 03:00N 59°57' E 030°11'0 0.0
2017-Aug-19 02:29N 59°57' E 030°11'0 0.0
2017-Aug-19 01:59N 59°57' E 030°11'0 0.0
2017-Aug-19 01:28N 59°57' E 030°11'0 0.0
2017-Aug-19 00:59N 59°57' E 030°11'0 0.0
2017-Aug-19 00:27N 59°57' E 030°11'0 0.0
2017-Aug-19 00:00N 59°57' E 030°11'0 0.0
2017-Aug-18 23:28N 59°57' E 030°11'0 0.0
2017-Aug-18 23:00N 59°57' E 030°11'0 0.0
2017-Aug-18 22:29N 59°57' E 030°11'0 0.0
2017-Aug-18 21:59N 59°57' E 030°11'0 0.0
2017-Aug-18 21:30N 59°57' E 030°11'0 0.0
2017-Aug-18 20:59N 59°57' E 030°11'0 0.0
2017-Aug-18 20:28N 59°57' E 030°11'0 0.0
2017-Aug-18 19:59N 59°57' E 030°11'0 0.0
2017-Aug-18 19:30N 59°57' E 030°11'0 0.0
2017-Aug-18 18:59N 59°57' E 030°11'0 0.0
2017-Aug-18 18:26N 59°57' E 030°11'0 0.0
2017-Aug-18 17:59N 59°57' E 030°11'0 0.0
2017-Aug-18 17:30N 59°57' E 030°11'0 0.0
2017-Aug-18 16:59N 59°57' E 030°11'0 0.0
2017-Aug-18 16:29N 59°57' E 030°11'0 0.0
2017-Aug-18 16:00N 59°57' E 030°11'0 0.0
2017-Aug-18 15:30N 59°57' E 030°11'0 0.0
2017-Aug-18 15:00N 59°57' E 030°11'0 0.0
2017-Aug-18 14:29N 59°57' E 030°11'0 0.0
2017-Aug-18 13:29N 59°57' E 030°11'0 0.0
2017-Aug-18 12:58N 59°57' E 030°11'0 0.0
2017-Aug-18 12:24N 59°57' E 030°11'0 0.0
2017-Aug-18 12:00N 59°57' E 030°11'0 0.0
2017-Aug-18 11:28N 59°57' E 030°11'0 0.0
2017-Aug-18 10:58N 59°57' E 030°11'0 0.0
2017-Aug-18 10:28N 59°57' E 030°11'0 0.0
2017-Aug-18 09:58N 59°57' E 030°11'0 0.0
2017-Aug-18 09:28N 59°57' E 030°11'0 0.0
2017-Aug-18 09:00N 59°57' E 030°11'0 0.0
2017-Aug-18 08:28N 59°57' E 030°11'0 0.0
2017-Aug-18 08:00N 59°57' E 030°11'0 0.0
2017-Aug-18 07:29N 59°57' E 030°11'0 0.0
2017-Aug-18 06:59N 59°57' E 030°11'0 0.0
2017-Aug-18 06:29N 59°57' E 030°11'0 0.0
2017-Aug-18 06:00N 59°57' E 030°11'0 0.0
2017-Aug-18 05:25N 59°57' E 030°11'0 0.0
2017-Aug-18 05:00N 59°57' E 030°11'0 0.0
2017-Aug-18 04:26N 59°57' E 030°11'0 0.0
2017-Aug-18 03:58N 59°57' E 030°11'0 0.0
2017-Aug-18 03:30N 59°57' E 030°11'1 2.1
2017-Aug-18 03:00N 59°57' E 030°09'5 9.7
2017-Aug-18 02:30N 59°55' E 029°60'611.8
2017-Aug-18 02:00N 59°58' E 029°49'4 9.0
2017-Aug-18 01:30N 59°60' E 029°41'612.0
2017-Aug-18 01:00N 60°01' E 029°30'5 9.3
2017-Aug-18 00:30N 60°02' E 029°20'713.2
2017-Aug-18 00:00N 60°02' E 029°07'713.6
2017-Aug-17 23:30N 60°02' E 028°54'714.4
2017-Aug-17 23:00N 60°02' E 028°39'714.7
2017-Aug-17 22:31N 60°03' E 028°25'714.8
2017-Aug-17 22:00N 60°08' E 028°13'815.2
2017-Aug-17 21:31N 60°10' E 027°58'816.0
2017-Aug-17 21:01N 60°10' E 027°42'815.9
2017-Aug-17 20:30N 60°06' E 027°28'613.1
2017-Aug-17 20:00N 60°02' E 027°17'714.6
2017-Aug-17 19:30N 59°58' E 027°05'815.6
2017-Aug-17 19:01N 59°59' E 026°49'816.0
2017-Aug-17 18:30N 59°59' E 026°33'714.7
2017-Aug-17 18:01N 59°57' E 026°19'715.0
2017-Aug-17 17:31N 59°55' E 026°05'816.0
2017-Aug-17 17:01N 59°52' E 025°50'714.1
2017-Aug-17 16:30N 59°50' E 025°36'815.6
2017-Aug-17 16:01N 59°48' E 025°22'714.7
2017-Aug-17 15:31N 59°46' E 025°08'815.3
2017-Aug-17 15:00N 59°44' E 024°53'816.0
2017-Aug-17 14:31N 59°38' E 024°42'815.1
2017-Aug-17 14:00N 59°31' E 024°45'4 7.3
2017-Aug-17 13:30N 59°27' E 024°46'0 0.0
2017-Aug-17 13:00N 59°27' E 024°46'0 0.0
2017-Aug-17 12:30N 59°27' E 024°46'0 0.0
2017-Aug-17 11:59N 59°27' E 024°46'0 0.0
2017-Aug-17 11:28N 59°27' E 024°46'0 0.0
2017-Aug-17 10:58N 59°27' E 024°46'0 0.0
2017-Aug-17 10:29N 59°27' E 024°46'0 0.0
2017-Aug-17 10:00N 59°27' E 024°46'0 0.0
2017-Aug-17 09:29N 59°27' E 024°46'0 0.0
2017-Aug-17 08:59N 59°27' E 024°46'0 0.0
2017-Aug-17 08:28N 59°27' E 024°46'0 0.0
2017-Aug-17 08:00N 59°27' E 024°46'0 0.0
2017-Aug-17 07:30N 59°27' E 024°46'0 0.0
2017-Aug-17 07:00N 59°27' E 024°46'0 0.0
2017-Aug-17 06:30N 59°27' E 024°46'0 0.0
2017-Aug-17 06:01N 59°27' E 024°46'0 0.0
2017-Aug-17 05:28N 59°27' E 024°46'0 0.2
2017-Aug-17 05:00N 59°27' E 024°46'2 4.9
2017-Aug-17 04:30N 59°29' E 024°45'815.2
2017-Aug-17 04:01N 59°36' E 024°39'815.7
2017-Aug-17 03:30N 59°38' E 024°24'917.3
2017-Aug-17 03:00N 59°36' E 024°08'917.7
2017-Aug-17 02:30N 59°33' E 023°51'917.7
2017-Aug-17 02:01N 59°30' E 023°35'917.6
2017-Aug-17 01:30N 59°27' E 023°18'917.5
2017-Aug-17 01:00N 59°25' E 023°02'918.0
2017-Aug-17 00:31N 59°22' E 022°45'918.0
2017-Aug-17 00:00N 59°19' E 022°28'917.7
2017-Aug-16 23:31N 59°15' E 022°13'918.6
2017-Aug-16 23:00N 59°09' E 021°58'917.3
2017-Aug-16 22:30N 59°04' E 021°44'917.5
2017-Aug-16 22:00N 58°57' E 021°35'1018.0
2017-Aug-16 21:29N 58°49' E 021°24'918.5
2017-Aug-16 21:00N 58°42' E 021°15'20717.5
2017-Aug-16 09:11N 56°08' E 016°59'317.7
2017-Aug-16 09:00N 56°06' E 016°54'917.8
2017-Aug-16 08:31N 56°01' E 016°41'918.1
2017-Aug-16 08:01N 55°56' E 016°28'917.0
2017-Aug-16 07:30N 55°51' E 016°15'815.7
2017-Aug-16 07:00N 55°48' E 016°03'815.7
2017-Aug-16 06:31N 55°44' E 015°50'815.9
2017-Aug-16 06:00N 55°40' E 015°38'816.0
2017-Aug-16 05:30N 55°36' E 015°25'816.2
2017-Aug-16 05:00N 55°33' E 015°13'917.9
2017-Aug-16 04:30N 55°29' E 014°58'918.1
2017-Aug-16 04:00N 55°25' E 014°44'917.7
2017-Aug-16 03:30N 55°19' E 014°32'917.9
2017-Aug-16 03:00N 55°12' E 014°23'917.8
2017-Aug-16 02:30N 55°05' E 014°13'816.9
2017-Aug-16 02:00N 54°60' E 014°02'917.3
2017-Aug-16 01:30N 54°57' E 013°48'917.7
2017-Aug-16 01:00N 54°54' E 013°33'918.1
2017-Aug-16 00:30N 54°52' E 013°18'918.2
2017-Aug-16 00:01N 54°49' E 013°03'917.9
2017-Aug-15 23:31N 54°47' E 012°48'1417.3
2017-Aug-15 22:44N 54°40' E 012°28'417.5
2017-Aug-15 22:31N 54°38' E 012°22'916.9
2017-Aug-15 22:00N 54°31' E 012°14'21 1.6
2017-Aug-15 08:36N 54°10' E 012°06'0 0.0
2017-Aug-15 08:06N 54°10' E 012°06'0 0.0
2017-Aug-15 07:24N 54°10' E 012°06'0 0.0
2017-Aug-15 07:00N 54°10' E 012°06'0 0.0
2017-Aug-15 06:30N 54°10' E 012°06'1 1.6
2017-Aug-15 05:59N 54°10' E 012°06'2 3.3
2017-Aug-15 05:30N 54°11' E 012°05'4 8.8
2017-Aug-15 05:00N 54°15' E 012°02'18 8.4
2017-Aug-15 02:49N 54°26' E 011°36'618.0
2017-Aug-15 02:30N 54°29' E 011°28'917.6
2017-Aug-15 02:00N 54°33' E 011°15'917.3
2017-Aug-15 01:31N 54°38' E 011°02'816.6
2017-Aug-15 01:00N 54°43' E 010°51'816.6
2017-Aug-15 00:31N 54°51' E 010°52'816.3
2017-Aug-15 00:00N 54°58' E 010°59'816.6
2017-Aug-14 23:30N 55°06' E 011°02'816.4
2017-Aug-14 23:00N 55°15' E 011°05'816.9
2017-Aug-14 22:30N 55°23' E 011°01'917.8
2017-Aug-14 22:00N 55°30' E 010°52'917.6
2017-Aug-14 21:30N 55°38' E 010°46'917.9
2017-Aug-14 20:59N 55°47' E 010°48'917.2
2017-Aug-14 20:29N 55°55' E 010°56'918.0
2017-Aug-14 20:01N 56°02' E 011°05'916.5
2017-Aug-14 19:29N 56°07' E 011°17'919.3
2017-Aug-14 19:00N 56°06' E 011°34'1719.0
2017-Aug-14 18:05N 56°11' E 012°04'119.1
2017-Aug-14 18:00N 56°12' E 012°06'918.1
2017-Aug-14 17:30N 56°11' E 012°23'918.8
2017-Aug-14 17:00N 56°05' E 012°36'815.9
2017-Aug-14 16:30N 55°58' E 012°42'815.9
2017-Aug-14 16:01N 55°50' E 012°45'714.0
2017-Aug-14 15:30N 55°44' E 012°40'2 3.4
2017-Aug-14 14:58N 55°43' E 012°37'0 0.0
2017-Aug-14 14:28N 55°43' E 012°37'0 0.0
2017-Aug-14 13:58N 55°43' E 012°37'0 0.0
2017-Aug-14 13:28N 55°43' E 012°37'0 0.0
2017-Aug-14 12:58N 55°43' E 012°37'0 0.0
2017-Aug-14 12:28N 55°43' E 012°37'0 0.0
2017-Aug-14 11:58N 55°43' E 012°37'0 0.0
2017-Aug-14 11:28N 55°43' E 012°37'0 0.0
2017-Aug-14 10:58N 55°43' E 012°37'0 0.0
2017-Aug-14 10:28N 55°43' E 012°37'0 0.0
2017-Aug-14 09:58N 55°43' E 012°37'0 0.0
2017-Aug-14 09:28N 55°43' E 012°37'0 0.0
2017-Aug-14 08:58N 55°43' E 012°37'0 0.0
2017-Aug-14 08:28N 55°43' E 012°37'0 0.0
2017-Aug-14 07:58N 55°43' E 012°37'0 0.0
2017-Aug-14 07:28N 55°43' E 012°37'0 0.0
2017-Aug-14 06:58N 55°43' E 012°37'0 0.0
2017-Aug-14 06:28N 55°43' E 012°37'0 0.0
2017-Aug-14 05:58N 55°43' E 012°37'0 0.0
2017-Aug-14 05:30N 55°43' E 012°37'0 0.0
2017-Aug-14 04:59N 55°43' E 012°37'0 0.1
2017-Aug-14 04:31N 55°43' E 012°37'2 4.1
2017-Aug-14 04:00N 55°44' E 012°40'815.4
2017-Aug-14 03:30N 55°52' E 012°40'1019.5
2017-Aug-14 03:00N 56°02' E 012°40'1020.2
2017-Aug-14 02:30N 56°08' E 012°26'2719.5
2017-Aug-14 01:06N 56°07' E 011°37'320.3
2017-Aug-14 00:58N 56°07' E 011°32'1020.5
2017-Aug-14 00:29N 56°07' E 011°14'918.5
2017-Aug-14 00:00N 56°00' E 011°05'1020.3
2017-Aug-13 23:29N 55°52' E 010°53'1019.3
2017-Aug-13 22:59N 55°43' E 010°48'1019.1
2017-Aug-13 22:29N 55°33' E 010°51'1019.6
2017-Aug-13 22:00N 55°25' E 011°00'1114.7
2017-Aug-13 21:17N 55°15' E 011°05'517.4
2017-Aug-13 21:00N 55°11' E 011°04'1019.1
2017-Aug-13 20:30N 55°01' E 011°02'918.1
2017-Aug-13 20:00N 54°54' E 010°53'917.7
2017-Aug-13 19:31N 54°45' E 010°53'917.2
2017-Aug-13 19:01N 54°39' E 011°03'1019.9
2017-Aug-13 18:31N 54°34' E 011°18'1019.9
2017-Aug-13 18:00N 54°30' E 011°34'1019.8
2017-Aug-13 17:30N 54°26' E 011°50'8519.2
2017-Aug-13 13:04N 55°04' E 014°02'120.4
2017-Aug-13 13:01N 55°05' E 014°03'1020.2
2017-Aug-13 12:31N 55°13' E 014°15'1019.9
2017-Aug-13 12:01N 55°20' E 014°27'1020.0
2017-Aug-13 11:31N 55°27' E 014°39'1020.4
2017-Aug-13 11:01N 55°32' E 014°55'1020.5
2017-Aug-13 10:30N 55°37' E 015°12'  

Dump ship's entire track history